createdAt,value
2018-06-08T00:01:48.663Z,100.00
2018-06-08T00:04:17.893Z,100.00
2018-06-08T00:06:47.114Z,100.00
2018-06-08T00:09:16.300Z,100.00
2018-06-08T00:11:45.551Z,100.00
2018-06-08T00:14:14.754Z,100.00
2018-06-08T00:16:43.958Z,100.00
2018-06-08T00:19:13.234Z,100.00
2018-06-08T00:21:42.422Z,100.00
2018-06-08T00:24:11.815Z,100.00
2018-06-08T00:26:41.167Z,100.00
2018-06-08T00:29:10.468Z,100.00
2018-06-08T00:31:39.722Z,100.00
2018-06-08T00:34:08.979Z,100.00
2018-06-08T00:36:38.308Z,100.00
2018-06-08T00:39:09.946Z,100.00
2018-06-08T00:41:39.133Z,100.00
2018-06-08T00:44:08.374Z,100.00
2018-06-08T00:46:37.594Z,100.00
2018-06-08T00:49:06.831Z,100.00
2018-06-08T00:51:36.076Z,100.00
2018-06-08T00:54:05.362Z,100.00
2018-06-08T00:56:51.872Z,100.00
2018-06-08T00:59:21.094Z,100.00
2018-06-08T01:01:50.371Z,100.00
2018-06-08T01:04:19.618Z,100.00
2018-06-08T01:06:48.834Z,100.00
2018-06-08T01:09:18.104Z,100.00
2018-06-08T01:11:47.337Z,100.00
2018-06-08T01:14:16.633Z,100.00
2018-06-08T01:16:45.830Z,100.00
2018-06-08T01:19:15.095Z,100.00
2018-06-08T01:21:44.290Z,100.00
2018-06-08T01:24:13.910Z,100.00
2018-06-08T01:26:42.918Z,100.00
2018-06-08T01:29:12.175Z,100.00
2018-06-08T01:31:41.418Z,100.00
2018-06-08T01:34:10.660Z,100.00
2018-06-08T01:36:40.176Z,100.00
2018-06-08T01:39:10.043Z,100.00
2018-06-08T01:41:39.274Z,100.00
2018-06-08T01:44:08.518Z,100.00
2018-06-08T01:46:37.741Z,100.00
2018-06-08T01:49:07.099Z,100.00
2018-06-08T01:51:36.304Z,100.00
2018-06-08T01:54:05.562Z,100.00
2018-06-08T01:56:34.803Z,100.00
2018-06-08T01:59:03.996Z,100.00
2018-06-08T02:01:33.209Z,100.00
2018-06-08T02:04:02.455Z,100.00
2018-06-08T02:06:31.663Z,100.00
2018-06-08T02:09:00.878Z,100.00
2018-06-08T02:11:30.136Z,100.00
2018-06-08T02:13:59.343Z,100.00
2018-06-08T02:16:28.404Z,100.00
2018-06-08T02:18:57.652Z,100.00
2018-06-08T02:21:26.879Z,100.00
2018-06-08T02:23:56.071Z,100.00
2018-06-08T02:26:25.293Z,100.00
2018-06-08T02:28:54.506Z,100.00
2018-06-08T02:31:23.495Z,100.00
2018-06-08T02:33:52.694Z,100.00
2018-06-08T02:36:21.898Z,100.00
2018-06-08T02:38:51.095Z,100.00
2018-06-08T02:41:20.327Z,100.00
2018-06-08T02:43:49.522Z,100.00
2018-06-08T02:46:18.767Z,100.00
2018-06-08T02:48:47.967Z,100.00
2018-06-08T02:51:17.197Z,100.00
2018-06-08T02:53:46.439Z,100.00
2018-06-08T02:56:15.674Z,100.00
2018-06-08T02:58:44.906Z,100.00
2018-06-08T03:01:14.242Z,100.00
2018-06-08T03:03:43.473Z,100.00
2018-06-08T03:06:12.692Z,100.00
2018-06-08T03:08:41.952Z,100.00
2018-06-08T03:11:11.147Z,100.00
2018-06-08T03:13:40.402Z,100.00
2018-06-08T03:16:09.647Z,100.00
2018-06-08T03:18:38.921Z,100.00
2018-06-08T03:21:08.168Z,100.00
2018-06-08T03:23:37.394Z,100.00
2018-06-08T03:26:06.665Z,100.00
2018-06-08T03:28:35.853Z,100.00
2018-06-08T03:31:05.005Z,100.00
2018-06-08T03:33:34.226Z,100.00
2018-06-08T03:36:03.485Z,100.00
2018-06-08T03:38:32.686Z,100.00
2018-06-08T03:41:01.941Z,100.00
2018-06-08T03:43:31.142Z,100.00
2018-06-08T03:46:00.442Z,100.00
2018-06-08T03:48:29.653Z,100.00
2018-06-08T03:50:58.878Z,100.00
2018-06-08T03:53:28.203Z,100.00
2018-06-08T03:55:57.205Z,100.00
2018-06-08T03:58:26.375Z,100.00
2018-06-08T04:00:55.591Z,100.00
2018-06-08T04:03:24.820Z,100.00
2018-06-08T04:05:54.038Z,100.00
2018-06-08T04:08:23.303Z,100.00
2018-06-08T04:10:52.478Z,100.00
2018-06-08T04:13:21.706Z,100.00
2018-06-08T04:15:50.940Z,100.00
2018-06-08T04:18:20.161Z,100.00
2018-06-08T04:20:49.402Z,100.00
2018-06-08T04:23:18.613Z,100.00
2018-06-08T04:25:47.886Z,100.00
2018-06-08T04:28:17.062Z,100.00
2018-06-08T04:30:46.026Z,100.00
2018-06-08T04:33:15.258Z,100.00
2018-06-08T04:35:44.530Z,100.00
2018-06-08T04:38:13.769Z,100.00
2018-06-08T04:40:43.015Z,100.00
2018-06-08T04:43:12.267Z,100.00
2018-06-08T04:45:41.565Z,100.00
2018-06-08T04:48:10.762Z,100.00
2018-06-08T04:50:39.967Z,100.00
2018-06-08T04:53:09.190Z,94.35
2018-06-08T04:55:38.406Z,92.24
2018-06-08T04:58:07.615Z,90.33
2018-06-08T05:00:36.819Z,87.91
2018-06-08T05:03:06.019Z,86.24
2018-06-08T05:05:35.255Z,86.28
2018-06-08T05:08:04.488Z,83.33
2018-06-08T05:10:33.700Z,82.77
2018-06-08T05:13:02.927Z,81.33
2018-06-08T05:15:32.278Z,77.76
2018-06-08T05:18:01.491Z,79.91
2018-06-08T05:20:31.628Z,82.27
2018-06-08T05:23:00.823Z,79.14
2018-06-08T05:25:30.091Z,79.53
2018-06-08T05:27:59.351Z,79.53
2018-06-08T05:30:28.649Z,79.83
2018-06-08T05:32:57.986Z,82.85
2018-06-08T05:35:27.547Z,81.98
2018-06-08T05:37:56.767Z,81.07
2018-06-08T05:40:26.016Z,75.79
2018-06-08T05:42:55.255Z,80.82
2018-06-08T05:45:24.490Z,77.93
2018-06-08T05:47:53.747Z,79.88
2018-06-08T05:50:22.951Z,77.03
2018-06-08T05:52:52.153Z,74.11
2018-06-08T05:55:21.417Z,75.67
2018-06-08T05:57:50.668Z,78.56
2018-06-08T06:00:19.965Z,74.59
2018-06-08T06:02:49.206Z,74.79
2018-06-08T06:05:18.423Z,72.19
2018-06-08T06:07:47.657Z,78.66
2018-06-08T06:10:16.638Z,77.46
2018-06-08T06:12:46.080Z,76.54
2018-06-08T06:15:15.428Z,74.45
2018-06-08T06:17:44.786Z,75.97
2018-06-08T06:20:14.177Z,78.25
2018-06-08T06:22:43.511Z,77.20
2018-06-08T06:25:13.011Z,78.39
2018-06-08T06:27:42.305Z,80.44
2018-06-08T06:30:11.544Z,82.40
2018-06-08T06:32:40.845Z,77.38
2018-06-08T06:35:10.082Z,77.13
2018-06-08T06:37:39.363Z,78.98
2018-06-08T06:40:08.682Z,79.10
2018-06-08T06:42:38.007Z,77.84
2018-06-08T06:45:07.414Z,78.01
2018-06-08T06:47:36.687Z,79.65
2018-06-08T06:50:06.298Z,77.04
2018-06-08T06:52:35.553Z,76.51
2018-06-08T06:55:04.791Z,80.01
2018-06-08T06:57:34.030Z,77.99
2018-06-08T07:00:03.069Z,77.14
2018-06-08T07:02:32.370Z,79.66
2018-06-08T07:05:01.450Z,76.21
2018-06-08T07:07:30.821Z,76.92
2018-06-08T07:10:00.159Z,77.34
2018-06-08T07:12:29.536Z,74.81
2018-06-08T07:14:58.823Z,76.86
2018-06-08T07:17:28.132Z,76.24
2018-06-08T07:19:57.457Z,74.83
2018-06-08T07:22:26.784Z,75.89
2018-06-08T07:24:56.118Z,76.59
2018-06-08T07:27:25.467Z,77.16
2018-06-08T07:29:54.758Z,78.02
2018-06-08T07:32:24.114Z,78.62
2018-06-08T07:34:53.127Z,78.62
2018-06-08T07:37:22.471Z,77.64
2018-06-08T07:39:51.745Z,76.68
2018-06-08T07:42:21.002Z,73.41
2018-06-08T07:44:50.230Z,72.34
2018-06-08T07:47:19.490Z,72.98
2018-06-08T07:49:48.766Z,72.32
2018-06-08T07:52:18.133Z,70.33
2018-06-08T07:54:47.397Z,71.45
2018-06-08T07:57:16.715Z,73.71
2018-06-08T07:59:45.993Z,73.51
2018-06-08T08:02:15.252Z,72.60
2018-06-08T08:04:44.533Z,73.02
2018-06-08T08:07:13.804Z,73.76
2018-06-08T08:09:42.961Z,73.18
2018-06-08T08:12:12.236Z,75.84
2018-06-08T08:14:41.478Z,74.97
2018-06-08T08:17:10.731Z,69.93
2018-06-08T08:19:40.025Z,69.85
2018-06-08T08:22:09.296Z,69.56
2018-06-08T08:24:38.614Z,70.40
2018-06-08T08:27:08.073Z,71.78
2018-06-08T08:29:37.434Z,71.85
2018-06-08T08:32:06.806Z,68.36
2018-06-08T08:34:36.104Z,70.75
2018-06-08T08:37:05.456Z,72.87
2018-06-08T08:39:34.757Z,69.77
2018-06-08T08:42:04.106Z,68.45
2018-06-08T08:44:33.499Z,69.90
2018-06-08T08:47:02.826Z,71.72
2018-06-08T08:49:32.313Z,70.49
2018-06-08T08:52:01.780Z,71.52
2018-06-08T08:54:31.049Z,71.73
2018-06-08T08:57:01.452Z,69.97
2018-06-08T08:59:30.871Z,71.42
2018-06-08T09:02:00.767Z,69.72
2018-06-08T09:04:30.185Z,67.56
2018-06-08T09:06:59.555Z,65.45
2018-06-08T09:09:29.114Z,64.36
2018-06-08T09:11:58.527Z,62.61
2018-06-08T09:14:27.996Z,64.13
2018-06-08T09:16:57.270Z,64.08
2018-06-08T09:19:26.582Z,63.88
2018-06-08T09:21:56.758Z,64.31
2018-06-08T09:24:26.063Z,63.52
2018-06-08T09:26:55.287Z,62.88
2018-06-08T09:29:24.531Z,60.79
2018-06-08T09:31:53.770Z,59.29
2018-06-08T09:34:23.059Z,62.55
2018-06-08T09:36:52.099Z,62.43
2018-06-08T09:39:21.577Z,64.27
2018-06-08T09:41:50.925Z,61.43
2018-06-08T09:44:20.382Z,61.08
2018-06-08T09:46:49.773Z,58.93
2018-06-08T09:49:19.345Z,60.68
2018-06-08T09:51:48.990Z,56.19
2018-06-08T09:54:18.641Z,57.17
2018-06-08T09:56:48.248Z,57.09
2018-06-08T09:59:17.809Z,59.71
2018-06-08T10:01:47.294Z,58.22
2018-06-08T10:04:16.545Z,59.83
2018-06-08T10:06:45.945Z,62.77
2018-06-08T10:09:15.022Z,63.76
2018-06-08T10:11:44.390Z,64.38
2018-06-08T10:14:13.970Z,64.44
2018-06-08T10:16:43.316Z,58.81
2018-06-08T10:19:12.774Z,58.67
2018-06-08T10:21:42.144Z,60.37
2018-06-08T10:24:11.946Z,56.32
2018-06-08T10:26:41.323Z,57.62
2018-06-08T10:29:10.622Z,58.40
2018-06-08T10:31:39.928Z,61.08
2018-06-08T10:34:09.419Z,62.89
2018-06-08T10:36:38.666Z,60.90
2018-06-08T10:39:08.660Z,60.97
2018-06-08T10:41:38.033Z,62.71
2018-06-08T10:44:07.316Z,61.33
2018-06-08T10:46:36.784Z,60.76
2018-06-08T10:49:06.137Z,60.05
2018-06-08T10:51:35.570Z,60.83
2018-06-08T10:54:04.983Z,59.85
2018-06-08T10:56:34.441Z,60.34
2018-06-08T10:59:03.916Z,59.04
2018-06-08T11:01:33.309Z,59.82
2018-06-08T11:04:02.667Z,59.84
2018-06-08T11:06:32.082Z,57.32
2018-06-08T11:09:01.453Z,58.50
2018-06-08T11:11:30.799Z,55.84
2018-06-08T11:14:00.191Z,55.77
2018-06-08T11:16:29.554Z,56.27
2018-06-08T11:18:58.899Z,54.31
2018-06-08T11:21:28.269Z,52.47
2018-06-08T11:23:57.611Z,56.35
2018-06-08T11:26:26.854Z,54.22
2018-06-08T11:28:56.240Z,54.84
2018-06-08T11:31:25.583Z,55.35
2018-06-08T11:33:55.060Z,54.31
2018-06-08T11:36:24.423Z,54.78
2018-06-08T11:38:53.760Z,52.85
2018-06-08T11:41:22.854Z,52.28
2018-06-08T11:43:52.191Z,52.65
2018-06-08T11:46:21.524Z,53.98
2018-06-08T11:48:50.812Z,53.56
2018-06-08T11:51:20.169Z,53.83
2018-06-08T11:53:49.470Z,53.51
2018-06-08T11:56:18.962Z,52.88
2018-06-08T11:58:48.380Z,53.29
2018-06-08T12:01:17.671Z,54.75
2018-06-08T12:03:47.014Z,55.60
2018-06-08T12:06:16.315Z,56.52
2018-06-08T12:08:45.654Z,55.55
2018-06-08T12:11:15.018Z,53.18
2018-06-08T12:13:44.522Z,52.87
2018-06-08T12:16:14.036Z,52.36
2018-06-08T12:18:43.500Z,51.83
2018-06-08T12:21:12.838Z,52.38
2018-06-08T12:23:42.374Z,53.57
2018-06-08T12:26:11.835Z,54.38
2018-06-08T12:28:41.076Z,54.94
2018-06-08T12:31:10.393Z,53.01
2018-06-08T12:33:39.819Z,51.96
2018-06-08T12:36:09.243Z,52.79
2018-06-08T12:38:38.766Z,53.89
2018-06-08T12:41:08.076Z,52.96
2018-06-08T12:43:37.417Z,53.17
2018-06-08T12:46:06.748Z,51.98
2018-06-08T12:48:36.190Z,54.16
2018-06-08T12:51:06.569Z,53.33
2018-06-08T12:53:36.757Z,53.80
2018-06-08T12:56:06.908Z,55.47
2018-06-08T12:58:37.873Z,55.52
2018-06-08T13:01:08.500Z,54.22
2018-06-08T13:03:38.697Z,54.09
2018-06-08T13:06:09.357Z,52.09
2018-06-08T13:08:40.111Z,51.43
2018-06-08T13:11:09.422Z,52.13
2018-06-08T13:13:38.754Z,52.58
2018-06-08T13:16:08.052Z,51.09
2018-06-08T13:18:37.405Z,51.81
2018-06-08T13:21:06.814Z,50.29
2018-06-08T13:23:36.129Z,51.43
2018-06-08T13:26:05.455Z,51.06
2018-06-08T13:28:34.971Z,50.38
2018-06-08T13:31:04.365Z,51.17
2018-06-08T13:33:33.775Z,50.59
2018-06-08T13:36:03.146Z,49.52
2018-06-08T13:38:32.480Z,50.28
2018-06-08T13:41:01.914Z,48.19
2018-06-08T13:43:31.422Z,48.98
2018-06-08T13:46:00.523Z,47.44
2018-06-08T13:48:32.136Z,50.37
2018-06-08T13:51:01.486Z,51.14
2018-06-08T13:53:30.801Z,49.20
2018-06-08T13:56:00.122Z,47.91
2018-06-08T13:58:29.467Z,48.83
2018-06-08T14:00:58.812Z,48.39
2018-06-08T14:03:28.117Z,50.25
2018-06-08T14:05:57.424Z,51.92
2018-06-08T14:08:26.660Z,51.96
2018-06-08T14:10:55.965Z,52.03
2018-06-08T14:13:25.223Z,51.04
2018-06-08T14:15:54.515Z,49.46
2018-06-08T14:18:23.810Z,51.82
2018-06-08T14:20:53.132Z,53.51
2018-06-08T14:23:22.380Z,51.98
2018-06-08T14:25:51.775Z,52.21
2018-06-08T14:28:21.043Z,51.10
2018-06-08T14:30:50.343Z,51.55
2018-06-08T14:33:19.670Z,53.47
2018-06-08T14:35:48.905Z,53.15
2018-06-08T14:38:18.243Z,53.91
2018-06-08T14:40:47.493Z,53.23
2018-06-08T14:43:16.758Z,53.18
2018-06-08T14:45:46.070Z,50.56
2018-06-08T14:48:15.374Z,52.67
2018-06-08T14:50:44.776Z,54.29
2018-06-08T14:53:14.063Z,54.49
2018-06-08T14:55:43.551Z,55.09
2018-06-08T14:58:12.941Z,55.20
2018-06-08T15:00:42.322Z,55.76
2018-06-08T15:03:11.745Z,54.71
2018-06-08T15:05:41.095Z,52.05
2018-06-08T15:08:10.182Z,52.63
2018-06-08T15:10:39.522Z,52.32
2018-06-08T15:13:08.850Z,53.62
2018-06-08T15:15:38.022Z,54.12
2018-06-08T15:18:07.286Z,52.75
2018-06-08T15:20:36.506Z,53.37
2018-06-08T15:23:05.867Z,52.34
2018-06-08T15:25:35.093Z,51.22
2018-06-08T15:28:04.393Z,51.04
2018-06-08T15:30:33.621Z,49.74
2018-06-08T15:33:02.815Z,48.52
2018-06-08T15:35:32.071Z,48.78
2018-06-08T15:38:01.335Z,46.85
2018-06-08T15:40:30.651Z,46.29
2018-06-08T15:42:59.864Z,46.56
2018-06-08T15:45:29.158Z,45.10
2018-06-08T15:47:58.400Z,48.26
2018-06-08T15:50:27.675Z,48.04
2018-06-08T15:52:56.918Z,47.35
2018-06-08T15:55:26.220Z,47.80
2018-06-08T15:57:55.560Z,47.17
2018-06-08T16:00:24.584Z,46.57
2018-06-08T16:02:53.854Z,45.68
2018-06-08T16:05:23.108Z,46.61
2018-06-08T16:07:52.342Z,46.57
2018-06-08T16:10:21.594Z,47.29
2018-06-08T16:12:50.870Z,47.57
2018-06-08T16:15:20.141Z,48.66
2018-06-08T16:17:49.172Z,49.62
2018-06-08T16:20:18.458Z,48.76
2018-06-08T16:22:47.556Z,49.08
2018-06-08T16:25:16.748Z,47.13
2018-06-08T16:27:46.086Z,47.93
2018-06-08T16:30:15.473Z,47.93
2018-06-08T16:32:44.810Z,48.93
2018-06-08T16:35:14.179Z,47.20
2018-06-08T16:37:43.531Z,48.24
2018-06-08T16:40:12.885Z,48.07
2018-06-08T16:42:41.930Z,49.66
2018-06-08T16:45:11.158Z,49.35
2018-06-08T16:47:40.594Z,49.53
2018-06-08T16:50:09.857Z,49.62
2018-06-08T16:52:39.173Z,51.42
2018-06-08T16:55:08.418Z,51.94
2018-06-08T16:57:37.681Z,51.11
2018-06-08T17:00:06.952Z,52.00
2018-06-08T17:02:36.619Z,53.03
2018-06-08T17:05:06.361Z,52.33
2018-06-08T17:07:36.533Z,49.42
2018-06-08T17:10:06.684Z,49.84
2018-06-08T17:12:36.338Z,48.48
2018-06-08T17:15:07.641Z,48.00
2018-06-08T17:17:37.868Z,47.90
2018-06-08T17:20:09.352Z,47.42
2018-06-08T17:22:39.482Z,47.27
2018-06-08T17:25:09.868Z,46.92
2018-06-08T17:27:40.039Z,47.57
2018-06-08T17:30:10.086Z,50.69
2018-06-08T17:32:39.809Z,53.59
2018-06-08T17:35:09.870Z,58.26
2018-06-08T17:37:40.076Z,60.25
2018-06-08T17:40:11.037Z,60.94
2018-06-08T17:42:41.535Z,60.42
2018-06-08T17:45:12.010Z,61.71
2018-06-08T17:47:41.349Z,63.50
2018-06-08T17:50:11.147Z,63.32
2018-06-08T17:52:40.767Z,66.23
2018-06-08T17:55:10.081Z,68.06
2018-06-08T17:57:41.754Z,69.13
2018-06-08T18:00:11.991Z,71.89
2018-06-08T18:02:41.320Z,72.11
2018-06-08T18:05:10.775Z,73.62
2018-06-08T18:07:40.027Z,76.77
2018-06-08T18:10:09.285Z,76.75
2018-06-08T18:12:38.533Z,78.65
2018-06-08T18:15:07.899Z,78.89
2018-06-08T18:17:37.263Z,80.99
2018-06-08T18:20:06.544Z,81.54
2018-06-08T18:22:35.802Z,83.55
2018-06-08T18:25:05.063Z,82.91
2018-06-08T18:27:34.294Z,85.69
2018-06-08T18:30:03.543Z,85.20
2018-06-08T18:32:32.744Z,86.06
2018-06-08T18:35:02.084Z,87.64
2018-06-08T18:37:31.371Z,87.46
2018-06-08T18:40:00.637Z,89.96
2018-06-08T18:42:30.040Z,91.95
2018-06-08T18:45:00.495Z,92.36
2018-06-08T18:47:29.745Z,92.93
2018-06-08T18:49:59.095Z,90.02
2018-06-08T18:52:28.398Z,89.36
2018-06-08T18:54:57.693Z,90.99
2018-06-08T18:57:26.978Z,91.52
2018-06-08T18:59:56.300Z,93.25
2018-06-08T19:02:27.628Z,93.24
2018-06-08T19:04:56.938Z,94.55
2018-06-08T19:07:26.268Z,96.13
2018-06-08T19:09:55.611Z,97.26
2018-06-08T19:15:04.409Z,95.50
2018-06-08T19:17:34.823Z,97.05
2018-06-08T19:20:04.373Z,97.19
2018-06-08T19:22:36.863Z,98.22
2018-06-08T19:25:06.259Z,100.00
2018-06-08T19:27:35.528Z,100.00
2018-06-08T19:30:04.953Z,100.00
2018-06-08T19:32:34.466Z,100.00
2018-06-08T19:35:10.244Z,100.00
2018-06-08T19:37:39.573Z,100.00
2018-06-08T19:40:11.167Z,100.00
2018-06-08T19:42:42.437Z,100.00
2018-06-08T19:45:12.696Z,100.00
2018-06-08T19:47:41.953Z,100.00
2018-06-08T19:50:11.467Z,100.00
2018-06-08T19:52:42.879Z,96.08
2018-06-08T19:55:14.159Z,96.67
2018-06-08T19:57:44.365Z,97.74
2018-06-08T20:00:14.035Z,96.81
2018-06-08T20:02:43.615Z,96.26
2018-06-08T20:05:14.466Z,95.95
2018-06-08T20:07:45.398Z,96.28
2018-06-08T20:10:15.556Z,96.17
2018-06-08T20:12:45.258Z,96.63
2018-06-08T20:15:15.650Z,99.29
2018-06-08T20:17:45.518Z,100.00
2018-06-08T20:20:15.993Z,100.00
2018-06-08T20:22:46.298Z,100.00
2018-06-08T20:25:16.805Z,100.00
2018-06-08T20:27:46.643Z,100.00
2018-06-08T20:30:16.105Z,100.00
2018-06-08T20:32:47.229Z,100.00
2018-06-08T20:35:18.402Z,100.00
2018-06-08T20:37:48.878Z,100.00
2018-06-08T20:40:20.268Z,100.00
2018-06-08T20:42:52.217Z,100.00
2018-06-08T20:45:21.730Z,100.00
2018-06-08T20:47:52.654Z,100.00
2018-06-08T20:50:25.008Z,100.00
2018-06-08T20:52:54.344Z,100.00
2018-06-08T20:55:23.648Z,100.00
2018-06-08T20:58:00.150Z,100.00
2018-06-08T21:00:29.504Z,100.00
2018-06-08T21:02:58.779Z,100.00
2018-06-08T21:05:28.033Z,100.00
2018-06-08T21:07:57.280Z,100.00
2018-06-08T21:10:26.530Z,100.00
2018-06-08T21:12:55.810Z,100.00
2018-06-08T21:15:25.062Z,100.00
2018-06-08T21:17:54.356Z,100.00
2018-06-08T21:20:23.330Z,100.00
2018-06-08T21:22:52.643Z,100.00
2018-06-08T21:25:21.898Z,100.00
2018-06-08T21:27:51.232Z,100.00
2018-06-08T21:30:20.471Z,100.00
2018-06-08T21:32:49.703Z,100.00
2018-06-08T21:35:19.059Z,100.00
2018-06-08T21:37:48.310Z,100.00
2018-06-08T21:40:17.547Z,100.00
2018-06-08T21:42:46.837Z,100.00
2018-06-08T21:45:16.142Z,100.00
2018-06-08T21:47:45.467Z,100.00
2018-06-08T21:50:14.794Z,100.00
2018-06-08T21:52:44.184Z,100.00
2018-06-08T21:55:13.462Z,100.00
2018-06-08T21:57:42.851Z,100.00
2018-06-08T22:00:12.182Z,100.00
2018-06-08T22:02:42.524Z,100.00
2018-06-08T22:05:12.030Z,100.00
2018-06-08T22:07:41.381Z,100.00
2018-06-08T22:10:10.640Z,100.00
2018-06-08T22:12:39.902Z,100.00
2018-06-08T22:15:09.111Z,100.00
2018-06-08T22:17:38.305Z,100.00
2018-06-08T22:20:07.518Z,100.00
2018-06-08T22:22:36.749Z,100.00
2018-06-08T22:25:06.072Z,100.00
2018-06-08T22:27:35.302Z,100.00
2018-06-08T22:30:04.703Z,100.00
2018-06-08T22:32:33.946Z,100.00
2018-06-08T22:35:03.280Z,100.00
2018-06-08T22:37:32.542Z,100.00
2018-06-08T22:40:01.780Z,100.00
2018-06-08T22:42:31.074Z,100.00
2018-06-08T22:45:00.421Z,100.00
2018-06-08T22:47:29.386Z,100.00
2018-06-08T22:49:58.651Z,100.00
2018-06-08T22:52:27.934Z,100.00
2018-06-08T22:54:57.188Z,100.00
2018-06-08T22:57:26.389Z,100.00
2018-06-08T22:59:55.642Z,100.00
2018-06-08T23:02:24.835Z,100.00
2018-06-08T23:04:54.073Z,100.00
2018-06-08T23:07:23.299Z,100.00
2018-06-08T23:09:52.521Z,100.00
2018-06-08T23:12:21.878Z,100.00
2018-06-08T23:14:51.126Z,100.00
2018-06-08T23:17:20.359Z,100.00
2018-06-08T23:19:49.342Z,100.00
2018-06-08T23:22:18.552Z,100.00
2018-06-08T23:24:47.791Z,100.00
2018-06-08T23:27:17.013Z,100.00
2018-06-08T23:29:46.268Z,100.00
2018-06-08T23:32:15.542Z,100.00
2018-06-08T23:34:44.826Z,100.00
2018-06-08T23:37:14.111Z,100.00
2018-06-08T23:39:43.340Z,100.00
2018-06-08T23:42:12.647Z,100.00
2018-06-08T23:44:41.923Z,100.00
2018-06-08T23:47:11.450Z,100.00
2018-06-08T23:49:40.700Z,100.00
2018-06-08T23:52:09.956Z,100.00
2018-06-08T23:54:39.156Z,100.00
2018-06-08T23:57:08.402Z,100.00
2018-06-08T23:59:37.635Z,100.00
